Time;durP1;ratioP1;P1;durP2;ratioP2;P2;SDS_P1;SDS_P2;PMS_P1;PMS_P2;Temp;Humidity;BMP_temperature;BMP_pressure;BME280_temperature;BME280_humidity;BME280_pressure;Samples;Min_cycle;Max_cycle;Signal;HPM_P1;HPM_P2
2022/06/08 00:01:05;;;;;;;17.13;6.97;;;10.40;99.90;;;;;;5003902;28;245448;-72
2022/06/08 00:03:36;;;;;;;12.20;6.47;;;10.40;99.90;;;;;;4969473;28;209705;-71
2022/06/08 00:06:03;;;;;;;14.45;5.88;;;10.50;99.90;;;;;;4968782;28;157001;-70
2022/06/08 00:08:29;;;;;;;13.88;6.22;;;10.40;99.90;;;;;;4975483;28;213439;-70
2022/06/08 00:10:55;;;;;;;12.02;5.85;;;10.40;99.90;;;;;;4999569;28;171333;-71
2022/06/08 00:13:21;;;;;;;11.73;5.50;;;10.40;99.90;;;;;;4996800;28;20382;-71
2022/06/08 00:15:48;;;;;;;15.73;6.28;;;10.40;99.90;;;;;;4938781;28;223750;-71
2022/06/08 00:18:14;;;;;;;14.98;7.40;;;10.40;99.90;;;;;;5020879;28;20045;-72
2022/06/08 00:20:40;;;;;;;14.80;6.32;;;10.30;99.90;;;;;;4976371;28;214463;-72
2022/06/08 00:23:06;;;;;;;13.88;6.43;;;10.30;99.90;;;;;;5018171;28;20068;-71
2022/06/08 00:25:33;;;;;;;17.25;8.13;;;10.20;99.90;;;;;;4961911;28;210887;-71
2022/06/08 00:27:59;;;;;;;16.65;7.22;;;10.30;99.90;;;;;;5013825;28;20049;-71
2022/06/08 00:30:25;;;;;;;19.45;8.05;;;10.20;99.90;;;;;;4957768;28;227621;-72
2022/06/08 00:32:51;;;;;;;18.23;8.68;;;10.20;99.90;;;;;;5021200;28;20057;-71
2022/06/08 00:35:18;;;;;;;16.63;7.97;;;10.30;99.90;;;;;;4941375;28;205985;-72
2022/06/08 00:37:44;;;;;;;17.50;8.45;;;10.30;99.90;;;;;;5011947;28;20050;-72
2022/06/08 00:40:12;;;;;;;15.50;8.40;;;10.30;99.90;;;;;;4967781;28;212011;-72
2022/06/08 00:42:40;;;;;;;18.25;9.10;;;10.30;99.90;;;;;;5020027;28;20507;-72
2022/06/08 00:45:10;;;;;;;16.88;7.53;;;10.30;99.90;;;;;;4955275;28;212456;-71
2022/06/08 00:47:58;;;;;;;16.43;7.80;;;10.30;99.90;;;;;;5017698;28;20060;-70
2022/06/08 00:50:35;;;;;;;16.33;7.65;;;10.30;99.90;;;;;;4946547;28;231293;-71
2022/06/08 00:53:03;;;;;;;13.98;7.47;;;10.20;99.90;;;;;;5020084;28;20050;-70
2022/06/08 00:55:34;;;;;;;14.63;7.65;;;10.20;99.90;;;;;;4967075;28;237809;-71
2022/06/08 00:58:11;;;;;;;17.73;7.65;;;10.20;99.90;;;;;;5025462;28;20060;-72
2022/06/08 01:00:40;;;;;;;14.30;7.47;;;10.20;99.90;;;;;;4954266;28;213884;-72
2022/06/08 01:03:11;;;;;;;17.52;7.63;;;10.20;99.90;;;;;;5009536;28;20053;-71
2022/06/08 01:05:41;;;;;;;;;;;10.10;99.90;;;;;;4954642;28;212532;-71
2022/06/08 01:08:26;;;;;;;17.40;7.90;;;10.10;99.90;;;;;;5018789;28;19940;-72
2022/06/08 01:10:56;;;;;;;12.60;7.53;;;10.10;99.90;;;;;;4941495;28;208851;-72
2022/06/08 01:13:23;;;;;;;16.77;7.43;;;10.00;99.90;;;;;;5018503;28;20160;-72
2022/06/08 01:15:50;;;;;;;18.55;8.30;;;10.10;99.90;;;;;;4952456;28;240640;-72
2022/06/08 01:18:16;;;;;;;14.93;7.82;;;10.00;99.90;;;;;;5028137;28;20048;-72
2022/06/08 01:20:45;;;;;;;18.77;8.48;;;10.10;99.90;;;;;;4938357;28;244022;-72
2022/06/08 01:23:11;;;;;;;14.02;8.35;;;10.10;99.90;;;;;;5021353;28;20171;-72
2022/06/08 01:26:00;;;;;;;14.05;7.88;;;10.00;99.90;;;;;;4957585;28;205813;-72
2022/06/08 01:28:54;;;;;;;18.42;9.50;;;10.10;99.90;;;;;;5004235;28;219090;-71
2022/06/08 01:31:45;;;;;;;18.77;8.65;;;10.10;99.90;;;;;;4958040;28;206520;-71
2022/06/08 01:34:18;;;;;;;14.98;8.30;;;10.10;99.90;;;;;;4966575;28;208754;-72
2022/06/08 01:36:51;;;;;;;19.60;8.68;;;10.10;99.90;;;;;;5016453;28;20399;-72
2022/06/08 01:39:25;;;;;;;16.65;9.18;;;10.00;99.90;;;;;;4968745;28;213933;-72
2022/06/08 01:42:29;;;;;;;18.92;10.07;;;10.10;99.90;;;;;;5033820;28;20109;-72
2022/06/08 01:45:59;;;;;;;16.10;9.27;;;10.10;99.90;;;;;;4960661;28;205720;-72
2022/06/08 01:48:31;;;;;;;23.75;11.32;;;10.10;99.90;;;;;;4917461;28;54398;-70
2022/06/08 01:51:23;;;;;;;18.52;10.10;;;10.10;99.90;;;;;;4869337;28;200783;-71
2022/06/08 01:54:12;;;;;;;17.73;9.88;;;10.10;99.90;;;;;;4889395;28;206973;-72
2022/06/08 01:56:48;;;;;;;17.35;10.07;;;10.20;99.90;;;;;;4863893;29;20055;-72
2022/06/08 01:59:20;;;;;;;19.60;10.75;;;10.20;99.90;;;;;;4849494;28;211051;-72
2022/06/08 02:01:51;;;;;;;20.50;12.10;;;10.20;99.90;;;;;;4912249;29;20044;-73
2022/06/08 02:04:17;;;;;;;;;;;10.20;99.90;;;;;;4838419;28;206803;-72
2022/06/08 02:07:05;;;;;;;20.75;11.48;;;10.20;99.90;;;;;;4904241;29;19929;-72
2022/06/08 02:09:50;;;;;;;20.85;11.95;;;10.20;99.90;;;;;;4852996;28;228639;-72
2022/06/08 02:12:16;;;;;;;22.15;12.85;;;10.20;99.90;;;;;;4911482;29;20071;-72
2022/06/08 02:14:56;;;;;;;23.50;14.20;;;10.30;99.90;;;;;;4854515;28;209656;-73
2022/06/08 02:17:43;;;;;;;23.77;13.50;;;10.30;99.90;;;;;;4916837;29;20071;-72
2022/06/08 02:20:14;;;;;;;24.92;13.15;;;10.30;99.90;;;;;;4864347;28;243444;-74
2022/06/08 02:22:49;;;;;;;23.20;13.40;;;10.30;99.90;;;;;;4955747;28;20051;-73
2022/06/08 02:25:30;;;;;;;25.48;13.80;;;10.30;99.90;;;;;;4984208;28;212556;-72
2022/06/08 02:28:03;;;;;;;23.75;13.18;;;10.30;99.90;;;;;;5034454;28;20069;-72
2022/06/08 02:30:33;;;;;;;21.30;13.77;;;10.30;99.90;;;;;;4946475;28;224299;-72
2022/06/08 02:36:01;;;;;;;24.33;13.00;;;10.20;99.90;;;;;;4968476;28;205846;-73
2022/06/08 02:38:34;;;;;;;19.15;12.00;;;10.20;99.90;;;;;;5001356;28;207535;-73
2022/06/08 02:41:06;;;;;;;23.52;13.43;;;10.20;99.90;;;;;;4992985;28;206025;-72
2022/06/08 02:43:37;;;;;;;22.77;13.38;;;10.20;99.90;;;;;;4977476;28;211972;-73
2022/06/08 02:46:40;;;;;;;22.42;13.65;;;10.20;99.90;;;;;;5006933;28;232184;-72
2022/06/08 02:49:09;;;;;;;24.40;13.63;;;10.20;99.90;;;;;;4964244;28;216522;-72
2022/06/08 02:51:40;;;;;;;28.88;15.02;;;10.10;99.90;;;;;;5027784;28;20041;-72
2022/06/08 02:54:12;;;;;;;24.70;15.50;;;10.20;99.90;;;;;;4967614;28;207078;-73
2022/06/08 02:57:05;;;;;;;27.58;16.95;;;10.20;99.90;;;;;;5016922;28;20054;-72
2022/06/08 03:00:01;;;;;;;23.95;14.07;;;10.20;99.90;;;;;;4962461;28;236833;-72
2022/06/08 03:02:50;;;;;;;30.88;15.57;;;10.20;99.90;;;;;;5029145;28;20049;-72
2022/06/08 03:05:22;;;;;;;27.40;15.45;;;10.20;99.90;;;;;;4918535;28;213977;-72
2022/06/08 03:08:01;;;;;;;23.58;15.20;;;10.10;99.90;;;;;;5008068;28;20423;-71
2022/06/08 03:10:33;;;;;;;25.42;13.68;;;10.10;99.90;;;;;;4955622;28;217785;-72
2022/06/08 03:13:06;;;;;;;25.48;15.07;;;10.10;99.90;;;;;;5028686;28;20042;-72
2022/06/08 03:15:33;;;;;;;21.73;13.48;;;10.00;99.90;;;;;;4956488;28;212550;-71
2022/06/08 03:17:59;;;;;;;21.88;12.95;;;10.10;99.90;;;;;;5025099;28;20117;-72
2022/06/08 03:20:26;;;;;;;22.25;14.05;;;10.10;99.90;;;;;;4950445;28;207774;-72
2022/06/08 03:22:54;;;;;;;21.05;13.65;;;10.00;99.90;;;;;;5022468;28;20463;-70
2022/06/08 03:25:21;;;;;;;26.10;14.57;;;10.00;99.90;;;;;;4946322;28;253939;-72
2022/06/08 03:27:49;;;;;;;28.48;14.85;;;10.00;99.90;;;;;;5035002;28;20265;-73
2022/06/08 03:30:16;;;;;;;21.15;13.50;;;10.00;99.90;;;;;;4960713;28;208363;-72
2022/06/08 03:32:43;;;;;;;24.13;14.18;;;10.00;99.90;;;;;;5023548;28;20057;-73
2022/06/08 03:35:10;;;;;;;29.50;16.95;;;10.00;99.90;;;;;;4972807;28;210778;-72
2022/06/08 03:37:36;;;;;;;25.75;15.27;;;10.00;99.90;;;;;;5014294;28;20053;-70
2022/06/08 03:40:04;;;;;;;24.95;16.77;;;10.00;99.90;;;;;;4969683;28;206669;-72
2022/06/08 03:42:30;;;;;;;24.13;15.55;;;10.10;99.90;;;;;;5005935;28;20402;-72
2022/06/08 03:44:56;;;;;;;24.15;15.68;;;10.10;99.90;;;;;;4964449;28;213818;-72
2022/06/08 03:47:25;;;;;;;28.92;16.85;;;10.10;99.90;;;;;;5014465;28;20060;-73
2022/06/08 03:49:55;;;;;;;30.50;17.55;;;10.20;99.90;;;;;;4959459;28;219072;-72
2022/06/08 03:52:27;;;;;;;28.00;17.63;;;10.20;99.90;;;;;;5025786;28;20130;-72
2022/06/08 03:54:59;;;;;;;31.60;19.30;;;10.30;99.90;;;;;;4945811;28;206502;-72
2022/06/08 03:57:25;;;;;;;30.38;18.95;;;10.40;99.90;;;;;;5023205;28;20478;-72
2022/06/08 03:59:52;;;;;;;29.85;18.10;;;10.50;99.90;;;;;;4962344;28;215261;-72
2022/06/08 04:02:19;;;;;;;27.67;18.05;;;10.70;99.90;;;;;;5012539;28;20057;-71
2022/06/08 04:04:45;;;;;;;34.70;19.58;;;10.80;99.90;;;;;;4950349;28;208764;-75
2022/06/08 04:07:11;;;;;;;29.73;18.70;;;10.90;99.90;;;;;;5029510;28;20049;-73
2022/06/08 04:09:37;;;;;;;27.73;16.77;;;11.00;99.90;;;;;;4961230;28;211527;-72
2022/06/08 04:12:04;;;;;;;25.30;16.63;;;11.20;99.90;;;;;;5004244;28;20454;-71
2022/06/08 04:14:30;;;;;;;29.33;18.77;;;11.30;99.90;;;;;;4958510;28;208329;-72
2022/06/08 04:16:56;;;;;;;31.45;18.00;;;11.40;99.90;;;;;;5015885;28;20041;-72
2022/06/08 04:19:24;;;;;;;27.60;18.30;;;11.50;99.90;;;;;;4955675;28;215251;-74
2022/06/08 04:21:50;;;;;;;25.23;16.85;;;11.60;99.90;;;;;;5001863;28;20050;-72
2022/06/08 04:24:17;;;;;;;25.38;16.88;;;11.70;99.90;;;;;;4963494;28;212713;-72
2022/06/08 04:26:44;;;;;;;26.13;16.13;;;11.80;99.90;;;;;;5023279;28;20172;-72
2022/06/08 04:29:10;;;;;;;23.13;15.85;;;11.80;99.90;;;;;;4970744;28;217546;-72
2022/06/08 04:31:37;;;;;;;26.90;17.90;;;11.90;99.90;;;;;;5010051;28;20118;-71
2022/06/08 04:34:07;;;;;;;27.73;16.98;;;11.90;99.90;;;;;;4941414;28;213690;-72
2022/06/08 04:36:34;;;;;;;26.10;16.65;;;12.00;99.90;;;;;;5006712;28;20052;-72
2022/06/08 04:39:01;;;;;;;26.65;16.35;;;12.00;99.90;;;;;;4972249;28;228164;-72
2022/06/08 04:41:28;;;;;;;24.13;15.57;;;12.10;99.90;;;;;;5002636;28;20406;-72
2022/06/08 04:43:54;;;;;;;24.92;16.08;;;12.10;99.90;;;;;;4972481;28;220505;-72
2022/06/08 04:46:20;;;;;;;26.73;16.80;;;12.20;99.90;;;;;;5002745;28;99886;-72
2022/06/08 04:48:47;;;;;;;24.10;16.98;;;12.20;99.90;;;;;;4967393;28;213061;-71
2022/06/08 04:51:14;;;;;;;30.33;17.75;;;12.30;99.90;;;;;;4985514;28;203325;-72
2022/06/08 04:53:43;;;;;;;25.20;17.10;;;12.40;99.90;;;;;;4975552;28;213275;-71
2022/06/08 04:56:09;;;;;;;27.90;18.48;;;12.40;99.90;;;;;;5016857;28;77921;-72
2022/06/08 04:58:36;;;;;;;28.57;18.77;;;12.50;99.90;;;;;;4969079;28;216750;-72
2022/06/08 05:01:03;;;;;;;25.85;17.80;;;12.50;99.90;;;;;;4987131;28;133915;-74
2022/06/08 05:03:30;;;;;;;29.02;18.95;;;12.50;99.90;;;;;;4980901;28;209362;-69
2022/06/08 05:05:58;;;;;;;27.95;17.17;;;12.60;99.90;;;;;;4976414;28;237017;-72
2022/06/08 05:08:24;;;;;;;29.23;18.98;;;12.60;99.90;;;;;;5022765;28;214645;-70
2022/06/08 05:10:53;;;;;;;29.02;19.25;;;12.70;99.90;;;;;;4973821;28;242367;-72
2022/06/08 05:13:21;;;;;;;29.65;19.75;;;12.80;99.90;;;;;;5031270;28;20042;-73
2022/06/08 05:15:48;;;;;;;26.73;18.92;;;12.80;99.90;;;;;;4974820;28;217839;-74
2022/06/08 05:18:16;;;;;;;29.60;20.63;;;12.90;99.90;;;;;;5041499;28;20169;-73
2022/06/08 05:20:44;;;;;;;29.08;19.67;;;12.90;99.90;;;;;;4947746;28;230688;-71
2022/06/08 05:23:17;;;;;;;32.20;20.15;;;13.00;99.90;;;;;;5022044;28;20049;-71
2022/06/08 05:25:44;;;;;;;30.90;21.85;;;13.10;99.90;;;;;;4926632;28;229914;-72
2022/06/08 05:28:13;;;;;;;31.83;21.33;;;13.20;99.90;;;;;;5020188;28;20053;-72
2022/06/08 05:30:41;;;;;;;30.52;21.05;;;13.30;99.90;;;;;;4960809;28;212914;-72
2022/06/08 05:33:07;;;;;;;31.58;21.88;;;13.30;99.90;;;;;;5022809;28;20041;-72
2022/06/08 05:35:34;;;;;;;34.47;20.55;;;13.40;99.90;;;;;;4950784;28;251441;-69
2022/06/08 05:38:00;;;;;;;30.08;21.45;;;13.50;99.90;;;;;;5011403;28;20045;-70
2022/06/08 05:40:33;;;;;;;26.90;19.88;;;13.60;99.90;;;;;;4964203;28;216215;-70
2022/06/08 05:43:01;;;;;;;31.13;21.00;;;13.70;99.90;;;;;;5017998;28;20397;-69
2022/06/08 05:45:29;;;;;;;28.45;20.20;;;13.70;99.90;;;;;;4977796;28;210702;-69
2022/06/08 05:47:56;;;;;;;30.15;19.50;;;13.80;99.90;;;;;;5014740;28;20046;-69
2022/06/08 05:50:23;;;;;;;28.65;21.33;;;14.00;99.90;;;;;;4975922;28;210255;-70
2022/06/08 05:52:50;;;;;;;29.55;20.10;;;14.10;99.90;;;;;;5024006;28;20042;-68
2022/06/08 05:55:17;;;;;;;26.27;19.05;;;14.20;99.90;;;;;;4978519;28;218253;-69
2022/06/08 05:57:43;;;;;;;26.52;19.48;;;14.30;99.90;;;;;;5023249;28;20558;-69
2022/06/08 06:00:13;;;;;;;26.85;19.55;;;14.40;99.90;;;;;;4948607;28;222387;-69
2022/06/08 06:02:40;;;;;;;26.47;18.70;;;14.50;99.90;;;;;;5027744;28;20482;-69
2022/06/08 06:05:06;;;;;;;27.95;19.63;;;14.50;99.90;;;;;;4945936;28;237476;-69
2022/06/08 06:07:32;;;;;;;26.50;18.60;;;14.70;99.90;;;;;;5031467;28;20057;-71
2022/06/08 06:10:02;;;;;;;24.88;18.17;;;14.80;99.90;;;;;;4957610;28;205751;-69
2022/06/08 06:12:29;;;;;;;24.92;17.67;;;14.90;99.90;;;;;;5025488;28;20062;-68
2022/06/08 06:14:57;;;;;;;24.60;16.17;;;15.00;99.90;;;;;;4976651;28;209989;-68
2022/06/08 06:17:23;;;;;;;24.17;17.08;;;15.10;99.90;;;;;;5039466;28;20049;-68
2022/06/08 06:19:49;;;;;;;20.98;15.30;;;15.40;99.90;;;;;;4961558;28;217232;-68
2022/06/08 06:22:16;;;;;;;23.55;15.48;;;15.50;99.90;;;;;;5022176;28;20064;-68
2022/06/08 06:24:42;;;;;;;20.98;15.15;;;15.70;99.90;;;;;;4973460;28;215904;-67
2022/06/08 06:27:08;;;;;;;20.58;14.63;;;15.80;99.90;;;;;;5031966;28;20049;-67
2022/06/08 06:29:34;;;;;;;20.65;14.63;;;15.90;99.90;;;;;;4974311;28;212389;-67
2022/06/08 06:32:05;;;;;;;24.95;14.13;;;15.90;99.90;;;;;;5028087;28;20052;-67
2022/06/08 06:34:32;;;;;;;20.83;14.48;;;16.00;99.90;;;;;;4967924;28;211278;-68
2022/06/08 06:36:59;;;;;;;22.50;14.07;;;16.20;99.90;;;;;;5022684;28;20553;-67
2022/06/08 06:39:26;;;;;;;18.30;12.68;;;16.30;99.90;;;;;;4980309;28;210342;-67
2022/06/08 06:41:53;;;;;;;20.38;12.52;;;16.40;99.90;;;;;;5042205;28;20034;-69
2022/06/08 06:44:20;;;;;;;18.45;12.27;;;16.40;99.90;;;;;;4963926;28;214659;-68
2022/06/08 06:46:46;;;;;;;18.33;12.55;;;16.50;99.90;;;;;;5019749;28;20147;-67
2022/06/08 06:49:12;;;;;;;16.92;11.63;;;16.50;99.90;;;;;;4953967;28;236998;-67
2022/06/08 06:51:38;;;;;;;18.13;12.05;;;16.60;99.90;;;;;;5002192;28;20053;-67
2022/06/08 06:54:07;;;;;;;17.10;11.45;;;16.60;99.90;;;;;;4970634;28;210561;-68
2022/06/08 06:56:34;;;;;;;17.73;11.23;;;16.90;99.90;;;;;;5010791;28;20204;-67
2022/06/08 06:59:00;;;;;;;16.55;9.98;;;17.10;99.90;;;;;;4988541;28;213873;-67
2022/06/08 07:01:27;;;;;;;17.08;10.77;;;17.40;99.90;;;;;;5017024;28;116638;-68
2022/06/08 07:03:53;;;;;;;17.23;10.48;;;17.60;99.90;;;;;;4984121;28;212458;-66
2022/06/08 07:06:19;;;;;;;15.98;9.00;;;17.80;99.90;;;;;;5006362;28;144179;-67
2022/06/08 07:08:45;;;;;;;13.95;9.27;;;18.10;99.90;;;;;;4981712;28;237798;-68
2022/06/08 07:11:32;;;;;;;14.35;8.98;;;18.40;99.90;;;;;;5013119;28;37330;-68
2022/06/08 07:14:00;;;;;;;13.80;8.20;;;18.70;99.90;;;;;;4981475;28;213852;-68
2022/06/08 07:16:26;;;;;;;12.85;6.97;;;19.10;99.90;;;;;;5005749;28;121843;-69
2022/06/08 07:18:52;;;;;;;10.98;6.25;;;19.20;99.90;;;;;;4981083;28;211799;-69
2022/06/08 07:21:19;;;;;;;13.00;6.07;;;19.00;99.90;;;;;;4977370;28;187553;-68
2022/06/08 07:23:45;;;;;;;11.32;5.95;;;19.00;99.90;;;;;;4987668;28;213043;-70
2022/06/08 07:26:12;;;;;;;10.63;5.25;;;19.00;99.90;;;;;;4999220;28;214574;-68
2022/06/08 07:28:39;;;;;;;10.55;5.80;;;19.00;99.90;;;;;;4978269;28;211573;-70
2022/06/08 07:31:06;;;;;;;10.02;4.97;;;18.90;99.90;;;;;;5012715;28;28195;-68
2022/06/08 07:33:34;;;;;;;10.07;5.23;;;18.80;99.90;;;;;;4980370;28;213633;-68
2022/06/08 07:36:01;;;;;;;10.73;5.32;;;18.70;99.90;;;;;;5018141;28;124122;-68
2022/06/08 07:38:28;;;;;;;9.68;4.97;;;18.70;99.90;;;;;;4995219;28;213400;-67
2022/06/08 07:40:54;;;;;;;10.73;5.35;;;18.70;99.90;;;;;;4985539;28;216735;-68
2022/06/08 07:43:21;;;;;;;13.95;5.95;;;18.80;99.90;;;;;;5033215;28;20388;-68
2022/06/08 07:45:47;;;;;;;12.18;5.90;;;18.70;99.90;;;;;;4968774;28;206792;-67
2022/06/08 07:50:59;;;;;;;8.95;4.25;;;19.10;99.90;;;;;;4969323;28;208073;-68
2022/06/08 07:53:25;;;;;;;10.90;4.38;;;19.20;99.90;;;;;;5013295;28;213253;-67
2022/06/08 07:55:51;;;;;;;10.13;4.20;;;19.20;99.90;;;;;;4995933;28;213722;-68
2022/06/08 07:58:17;;;;;;;10.60;4.28;;;19.20;99.90;;;;;;5024521;28;20072;-67
2022/06/08 08:00:47;;;;;;;9.13;3.75;;;19.30;99.90;;;;;;4951545;28;207116;-68
2022/06/08 08:03:17;;;;;;;9.48;4.00;;;19.50;99.90;;;;;;5027561;28;20152;-67
2022/06/08 08:05:44;;;;;;;9.80;3.65;;;19.80;99.90;;;;;;4922007;28;252377;-68
2022/06/08 08:08:13;;;;;;;9.23;3.60;;;19.90;99.90;;;;;;5024125;28;20076;-67
2022/06/08 08:10:40;;;;;;;8.75;3.50;;;19.90;99.90;;;;;;4966546;28;217048;-67
2022/06/08 08:13:08;;;;;;;10.00;3.40;;;19.90;99.90;;;;;;5023777;28;20061;-68
2022/06/08 08:15:34;;;;;;;8.15;2.83;;;20.00;99.90;;;;;;4964940;28;215221;-68
2022/06/08 08:18:00;;;;;;;9.02;2.90;;;20.00;99.90;;;;;;5023483;28;20426;-67
2022/06/08 08:20:28;;;;;;;7.55;2.50;;;20.10;99.90;;;;;;4973186;28;210376;-67
2022/06/08 08:22:58;;;;;;;10.00;2.40;;;20.10;99.90;;;;;;5028099;28;20053;-67
2022/06/08 08:25:26;;;;;;;8.40;2.00;;;20.10;99.90;;;;;;4968854;28;214404;-67
2022/06/08 08:27:53;;;;;;;6.65;1.83;;;20.10;99.90;;;;;;5030739;28;20064;-67
2022/06/08 08:30:23;;;;;;;10.20;2.30;;;20.20;99.90;;;;;;4970169;28;213718;-67
2022/06/08 08:32:49;;;;;;;10.13;2.33;;;20.20;99.90;;;;;;5016085;28;20064;-67
2022/06/08 08:35:16;;;;;;;6.38;1.80;;;20.50;99.90;;;;;;4957134;28;210498;-67
2022/06/08 08:37:44;;;;;;;9.73;2.40;;;20.70;99.90;;;;;;5017800;28;20060;-68
2022/06/08 08:40:39;;;;;;;8.35;2.35;;;20.80;99.90;;;;;;4977317;28;212264;-68
2022/06/08 08:43:09;;;;;;;8.93;2.30;;;20.90;99.90;;;;;;4963503;28;20063;-66
2022/06/08 08:46:22;;;;;;;8.77;2.58;;;21.00;99.90;;;;;;4889555;28;207681;-67
2022/06/08 08:48:52;;;;;;;7.72;2.53;;;21.20;99.90;;;;;;4881705;29;205859;-68
2022/06/08 08:51:25;;;;;;;8.00;2.03;;;21.20;99.90;;;;;;4907363;29;111656;-67
2022/06/08 08:54:12;;;;;;;9.13;2.25;;;21.30;99.90;;;;;;4874486;29;208065;-68
2022/06/08 08:56:39;;;;;;;7.28;2.00;;;21.60;99.90;;;;;;4878743;29;20074;-69
2022/06/08 08:59:16;;;;;;;9.30;2.50;;;21.70;99.90;;;;;;4847052;29;210409;-70
2022/06/08 09:01:46;;;;;;;6.15;1.95;;;21.60;99.90;;;;;;4904114;29;20048;-70
2022/06/08 09:04:33;;;;;;;7.30;2.10;;;21.60;99.90;;;;;;4850384;29;211144;-69
2022/06/08 09:07:17;;;;;;;9.27;2.50;;;21.60;99.90;;;;;;4906946;29;20051;-69
2022/06/08 09:09:43;;;;;;;8.23;2.30;;;21.70;99.90;;;;;;4847498;29;210004;-69
2022/06/08 09:12:21;;;;;;;7.65;2.25;;;21.50;99.90;;;;;;4917099;29;20100;-68
2022/06/08 09:15:00;;;;;;;8.05;2.58;;;21.50;99.90;;;;;;4852919;29;213388;-70
2022/06/08 09:17:48;;;;;;;10.18;2.40;;;21.30;99.90;;;;;;4913656;29;20058;-70
2022/06/08 09:20:31;;;;;;;7.70;2.38;;;21.20;99.90;;;;;;4849191;28;210832;-69
2022/06/08 09:23:01;;;;;;;8.45;2.40;;;21.30;99.90;;;;;;4925539;28;20035;-69
2022/06/08 09:25:31;;;;;;;7.55;2.15;;;21.20;99.90;;;;;;4932670;28;127664;-69
2022/06/08 09:27:59;;;;;;;11.57;2.60;;;21.30;99.90;;;;;;5020843;28;21030;-70
2022/06/08 09:30:29;;;;;;;7.65;2.20;;;21.60;99.90;;;;;;4957051;28;241411;-69
2022/06/08 09:33:13;;;;;;;8.05;2.50;;;21.90;99.90;;;;;;5025195;28;20057;-68
2022/06/08 09:35:55;;;;;;;8.60;2.10;;;22.40;99.90;;;;;;4982407;28;219926;-69
2022/06/08 09:38:25;;;;;;;7.13;2.10;;;22.60;99.90;;;;;;5028310;28;20073;-69
2022/06/08 09:41:27;;;;;;;7.43;1.92;;;22.60;99.90;;;;;;4952419;28;209612;-67
2022/06/08 09:44:17;;;;;;;7.72;2.13;;;22.40;99.90;;;;;;4977025;28;217162;-68
2022/06/08 09:53:06;;;;;;;7.15;2.80;;;23.50;99.90;;;;;;5018762;28;20060;-68
2022/06/08 09:56:04;;;;;;;8.25;2.88;;;23.50;99.90;;;;;;4972573;28;206684;-70
2022/06/08 09:59:07;;;;;;;7.82;2.83;;;23.70;99.90;;;;;;4979616;28;207136;-69
2022/06/08 10:01:49;;;;;;;9.10;3.38;;;24.00;99.90;;;;;;4995925;28;20045;-69
2022/06/08 10:04:26;;;;;;;9.27;2.75;;;24.20;99.90;;;;;;4935110;28;209883;-69
2022/06/08 10:07:19;;;;;;;9.70;3.20;;;24.20;99.60;;;;;;4991886;28;20510;-69
2022/06/08 10:10:04;;;;;;;9.32;3.10;;;24.30;97.80;;;;;;4964905;28;206782;-69
2022/06/08 10:12:49;;;;;;;7.80;2.95;;;23.80;97.90;;;;;;4982580;28;1116126;-69
2022/06/08 10:15:15;;;;;;;10.75;3.47;;;23.60;99.60;;;;;;4946706;28;215609;-68
2022/06/08 10:17:50;;;;;;;8.82;3.13;;;23.70;99.90;;;;;;5001824;28;20041;-71
2022/06/08 10:20:24;;;;;;;8.35;3.30;;;23.70;99.50;;;;;;4946942;28;210274;-70
2022/06/08 10:22:56;;;;;;;9.25;2.65;;;23.80;99.40;;;;;;5001051;28;20057;-69
2022/06/08 10:25:42;;;;;;;7.72;2.90;;;23.90;99.10;;;;;;4925891;28;251225;-70
2022/06/08 10:28:30;;;;;;;7.35;2.72;;;23.90;98.20;;;;;;5017845;28;20427;-69
2022/06/08 10:31:18;;;;;;;8.77;3.03;;;23.60;97.30;;;;;;4953417;28;185643;-70
2022/06/08 10:33:55;;;;;;;12.20;2.92;;;23.20;99.00;;;;;;4966268;28;216013;-70
2022/06/08 10:36:22;;;;;;;9.63;2.90;;;23.00;99.10;;;;;;5005802;28;140853;-69
2022/06/08 10:38:48;;;;;;;8.48;2.80;;;22.80;99.60;;;;;;4975992;28;218762;-69
2022/06/08 10:44:25;;;;;;;8.95;2.78;;;22.30;99.90;;;;;;4975677;28;213541;-69
2022/06/08 10:46:51;;;;;;;8.13;2.45;;;22.10;99.90;;;;;;5028206;28;20079;-69
2022/06/08 10:49:46;;;;;;;7.83;2.23;;;22.00;99.30;;;;;;4960915;28;250306;-69
2022/06/08 10:52:18;;;;;;;9.15;2.65;;;21.90;99.20;;;;;;5027478;28;20052;-70
2022/06/08 10:54:54;;;;;;;8.15;2.92;;;21.70;99.90;;;;;;4972563;28;222884;-69
2022/06/08 10:57:42;;;;;;;8.50;2.92;;;21.70;99.90;;;;;;5027640;28;20045;-69
2022/06/08 11:00:19;;;;;;;8.07;3.08;;;21.80;99.90;;;;;;4963442;28;206092;-69
2022/06/08 11:02:51;;;;;;;8.40;2.60;;;21.80;99.90;;;;;;5025880;28;20053;-68
2022/06/08 11:05:36;;;;;;;9.85;2.47;;;21.90;99.90;;;;;;4968708;28;213177;-68
2022/06/08 11:08:09;;;;;;;9.80;2.70;;;21.90;99.90;;;;;;5022743;28;20056;-68
2022/06/08 11:10:44;;;;;;;7.95;2.63;;;21.80;99.90;;;;;;4969956;28;208290;-69
2022/06/08 11:13:25;;;;;;;8.30;2.70;;;21.90;99.90;;;;;;5024536;28;20086;-68
2022/06/08 11:16:06;;;;;;;9.45;2.88;;;21.90;99.60;;;;;;4969742;28;143682;-68
2022/06/08 11:18:43;;;;;;;9.70;2.72;;;21.80;99.90;;;;;;4981848;28;212973;-68
2022/06/08 11:21:13;;;;;;;7.93;2.60;;;21.80;99.90;;;;;;5018825;28;215774;-68
2022/06/08 11:23:54;;;;;;;8.33;2.67;;;21.50;99.80;;;;;;4978911;28;214684;-68
2022/06/08 11:26:21;;;;;;;8.55;2.78;;;21.40;99.90;;;;;;5011469;28;213549;-68
2022/06/08 11:28:59;;;;;;;7.72;2.80;;;21.10;99.90;;;;;;4980647;28;210986;-68
2022/06/08 11:31:28;;;;;;;8.02;3.00;;;21.10;99.90;;;;;;5016060;28;178890;-69
2022/06/08 11:34:13;;;;;;;9.60;2.92;;;21.10;99.90;;;;;;4984949;28;210157;-69
2022/06/08 11:36:39;;;;;;;8.48;2.97;;;21.10;99.90;;;;;;5002581;28;20133;-68
2022/06/08 11:39:21;;;;;;;10.13;3.10;;;21.00;99.90;;;;;;4957450;28;252344;-68
2022/06/08 11:42:11;;;;;;;8.50;3.40;;;21.00;99.90;;;;;;5025528;28;20076;-69
2022/06/08 11:44:45;;;;;;;9.65;3.72;;;21.00;99.90;;;;;;4920834;28;207806;-69
2022/06/08 11:47:15;;;;;;;9.43;3.60;;;20.90;99.90;;;;;;4971568;28;20553;-69
2022/06/08 11:49:45;;;;;;;8.82;3.33;;;20.90;99.90;;;;;;4916451;28;206419;-69
2022/06/08 11:52:36;;;;;;;10.73;3.40;;;21.00;99.90;;;;;;4962006;28;20058;-70
2022/06/08 11:55:15;;;;;;;11.45;3.72;;;21.20;99.90;;;;;;4914101;28;215095;-70
2022/06/08 11:57:48;;;;;;;10.07;3.38;;;21.50;99.90;;;;;;4969422;28;20062;-69
2022/06/08 12:00:19;;;;;;;11.02;3.42;;;21.80;99.90;;;;;;4921346;28;239629;-69
2022/06/08 12:02:55;;;;;;;9.55;3.47;;;22.00;99.90;;;;;;4970102;28;20377;-70
2022/06/08 12:05:25;;;;;;;11.98;3.10;;;21.90;99.90;;;;;;4919840;28;213947;-69
2022/06/08 12:08:04;;;;;;;9.93;2.75;;;21.70;99.90;;;;;;4992568;28;20060;-69
2022/06/08 12:10:34;;;;;;;12.10;2.22;;;21.50;99.90;;;;;;4931860;28;239569;-72
2022/06/08 12:13:24;;;;;;;6.50;1.33;;;21.10;99.90;;;;;;5003670;28;20042;-73
2022/06/08 12:15:57;;;;;;;8.07;1.70;;;20.20;99.90;;;;;;4917380;28;176103;-75
2022/06/08 12:18:36;;;;;;;9.65;1.40;;;19.50;99.90;;;;;;4962042;28;20496;-72
2022/06/08 12:21:06;;;;;;;9.65;1.55;;;19.10;99.90;;;;;;4955896;28;206815;-74
2022/06/08 12:23:58;;;;;;;12.20;1.60;;;18.70;99.90;;;;;;4991136;28;214207;-75
2022/06/08 12:26:35;;;;;;;8.10;1.65;;;18.50;99.90;;;;;;4935589;28;227107;-75
2022/06/08 12:29:25;;;;;;;10.20;1.70;;;18.30;99.90;;;;;;4917360;28;210831;-75
2022/06/08 12:31:59;;;;;;;8.37;1.50;;;18.20;99.90;;;;;;4905650;28;20063;-75
2022/06/08 12:34:41;;;;;;;8.88;1.85;;;18.10;99.90;;;;;;4893855;28;205643;-75
2022/06/08 12:37:26;;;;;;;6.28;1.40;;;18.10;99.90;;;;;;4944567;28;20157;-74
2022/06/08 12:39:54;;;;;;;9.88;1.55;;;18.00;99.90;;;;;;4899280;28;220334;-74
2022/06/08 12:42:31;;;;;;;8.50;1.50;;;18.00;99.90;;;;;;4953073;28;20051;-76
2022/06/08 12:45:00;;;;;;;8.85;1.70;;;17.90;99.90;;;;;;4911857;28;280602;-74
2022/06/08 12:47:30;;;;;;;11.10;1.88;;;17.80;99.90;;;;;;4978125;28;20047;-75
2022/06/08 12:49:56;;;;;;;11.02;1.92;;;17.80;99.90;;;;;;4913712;28;74415;-75
2022/06/08 12:52:26;;;;;;;8.73;1.88;;;17.70;99.90;;;;;;4961091;28;20035;-75
2022/06/08 12:54:52;;;;;;;9.90;2.03;;;17.70;99.90;;;;;;4889390;28;212207;-75
2022/06/08 12:57:25;;;;;;;8.23;1.88;;;17.50;99.90;;;;;;4937675;28;20054;-74
2022/06/08 12:59:56;;;;;;;9.10;1.98;;;17.50;99.90;;;;;;4904608;28;205652;-74
2022/06/08 13:02:32;;;;;;;;;;;17.40;99.90;;;;;;4964262;28;20054;-73
2022/06/08 13:05:01;;;;;;;10.88;2.25;;;17.40;99.90;;;;;;4952805;28;223220;-73
2022/06/08 13:07:30;;;;;;;8.57;2.15;;;17.40;99.90;;;;;;5006609;28;20550;-74
2022/06/08 13:09:58;;;;;;;9.18;2.38;;;17.40;99.90;;;;;;4954193;28;101436;-74
2022/06/08 13:12:36;;;;;;;9.93;2.60;;;17.50;99.90;;;;;;5022334;28;20426;-74